Blidosund — SDKG — position and weather

sailwx.info

Track history (hours):
 
Tides and Currents Weather Stations Pressure Air Temp Water Temp Dewpoint Dewpoint Depression Visibility Wind Speed Wind Dir Waves Ship Positions

Blidosund

Last reported at 2016-Jun-01 01:33 UTC. Time now 2016-Jun-01 01:42 UTC.
Position N 59°20' E 018°05'.

Length 35 m; draft 3 m.

Type: Passenger vessel. MMSI: 265522680.

Date/timePositionNaut miles runAvg speedWind from/ knotsBaromVisibWave heightAir tempDewpointWater temp
2016-Jun-01 01:33N 59°20' E 018°05'0 0.0
2016-Jun-01 00:34N 59°20' E 018°05'0 0.0
2016-May-31 23:34N 59°20' E 018°05'0 0.0
2016-May-31 22:34N 59°20' E 018°05'0 0.0
2016-May-31 21:34N 59°20' E 018°05'0 0.0
2016-May-31 20:33N 59°20' E 018°05'3 2.6
2016-May-31 19:33N 59°20' E 018°09'2 0.6
2016-May-31 17:10N 59°20' E 018°13'4 6.5
2016-May-31 16:34N 59°19' E 018°05'0 0.4
2016-May-31 15:26N 59°20' E 018°05'0 0.0
2016-May-31 14:33N 59°20' E 018°05'0 0.0
2016-May-31 13:34N 59°20' E 018°05'0 0.0
2016-May-31 12:33N 59°20' E 018°05'0 0.0
2016-May-31 11:32N 59°20' E 018°05'0 0.0
2016-May-31 10:10N 59°20' E 018°05'0 0.0
2016-May-31 09:33N 59°20' E 018°05'0 0.0
2016-May-31 08:04N 59°20' E 018°05'0 0.0
2016-May-31 07:29N 59°20' E 018°05'0 0.0
2016-May-31 06:33N 59°20' E 018°05'0 0.0
2016-May-31 04:31N 59°20' E 018°05'0 0.0
2016-May-31 03:34N 59°20' E 018°05'0 0.0
2016-May-31 02:33N 59°20' E 018°05'0 0.0
2016-May-31 01:34N 59°20' E 018°05'0 0.0
2016-May-31 00:34N 59°20' E 018°05'0 0.0
2016-May-30 23:34N 59°20' E 018°05'0 0.0
2016-May-30 22:34N 59°20' E 018°05'0 0.0
2016-May-30 21:33N 59°20' E 018°05'0 0.0
2016-May-30 20:34N 59°20' E 018°05'3 3.2
2016-May-30 19:30N 59°20' E 018°11'0 0.1
2016-May-30 17:14N 59°20' E 018°11'4 5.2
2016-May-30 16:34N 59°20' E 018°05'0 0.0
2016-May-30 15:34N 59°20' E 018°05'0 0.0
2016-May-30 14:30N 59°20' E 018°05'0 0.0
2016-May-30 13:34N 59°20' E 018°05'0 0.0
2016-May-30 12:10N 59°20' E 018°05'0 0.0
2016-May-30 11:33N 59°20' E 018°05'0 0.0
2016-May-30 10:30N 59°20' E 018°05'0 0.0
2016-May-30 09:28N 59°20' E 018°05'0 0.0
2016-May-30 08:30N 59°20' E 018°05'0 0.0
2016-May-30 07:25N 59°20' E 018°05'0 0.0
2016-May-30 04:34N 59°20' E 018°05'0 0.0
2016-May-30 03:23N 59°20' E 018°05'0 0.0
2016-May-30 01:29N 59°20' E 018°05'0 0.0
2016-May-30 00:11N 59°20' E 018°05'0 0.0
2016-May-29 23:33N 59°20' E 018°05'0 0.0
2016-May-29 22:33N 59°20' E 018°05'0 0.0
2016-May-29 21:34N 59°20' E 018°05'0 0.0
2016-May-29 20:34N 59°20' E 018°05'0 0.0
2016-May-29 19:28N 59°20' E 018°05'0 0.0
2016-May-29 18:34N 59°20' E 018°05'0 0.0
2016-May-29 17:33N 59°20' E 018°05'0 0.0
2016-May-29 16:33N 59°20' E 018°05'0 0.0
2016-May-29 15:33N 59°20' E 018°05'0 0.0
2016-May-29 14:33N 59°20' E 018°05'0 0.0
2016-May-29 13:33N 59°20' E 018°05'0 0.0
2016-May-29 12:33N 59°20' E 018°05'0 0.0
2016-May-29 11:33N 59°20' E 018°05'0 0.0
2016-May-29 10:33N 59°20' E 018°05'0 0.0
2016-May-29 09:33N 59°20' E 018°05'0 0.0
2016-May-29 08:33N 59°20' E 018°05'0 0.0
2016-May-29 07:33N 59°20' E 018°05'0 0.0
2016-May-29 06:33N 59°20' E 018°05'0 0.0
2016-May-29 05:33N 59°20' E 018°05'0 0.0
2016-May-29 04:33N 59°20' E 018°05'0 0.0
2016-May-29 03:33N 59°20' E 018°05'0 0.0
2016-May-29 02:33N 59°20' E 018°05'0 0.0
2016-May-29 01:33N 59°20' E 018°05'0 0.0
2016-May-29 00:33N 59°20' E 018°05'0 0.0
2016-May-28 23:32N 59°20' E 018°05'0 0.0
2016-May-28 22:33N 59°20' E 018°05'0 0.0
2016-May-28 21:33N 59°20' E 018°05'0 0.0
2016-May-28 20:33N 59°20' E 018°05'3 3.3
2016-May-28 19:33N 59°20' E 018°11'1 0.4
2016-May-28 17:21N 59°20' E 018°12'4 5.1
2016-May-28 16:33N 59°20' E 018°05'0 0.0
2016-May-28 15:25N 59°20' E 018°05'0 0.0
2016-May-28 12:10N 59°20' E 018°05'0 0.0
2016-May-28 11:33N 59°20' E 018°05'0 0.0
2016-May-27 23:32N 59°20' E 018°05'0 0.0
2016-May-27 22:32N 59°20' E 018°05'0 0.0
2016-May-27 21:21N 59°20' E 018°05'0 0.0
2016-May-27 20:33N 59°20' E 018°05'3 3.3
2016-May-27 19:31N 59°20' E 018°11'0 0.1
2016-May-27 17:17N 59°20' E 018°12'4 5.0
2016-May-27 16:33N 59°20' E 018°05'0 0.0
2016-May-27 15:29N 59°20' E 018°05'0 0.0
2016-May-27 14:32N 59°20' E 018°05'0 0.0
2016-May-27 13:24N 59°20' E 018°05'0 0.0
2016-May-27 12:29N 59°20' E 018°05'0 0.0
2016-May-27 11:28N 59°20' E 018°05'0 0.0
2016-May-27 10:31N 59°20' E 018°05'0 0.0
2016-May-27 09:27N 59°20' E 018°05'0 0.0
2016-May-27 08:33N 59°20' E 018°05'0 0.0
2016-May-27 07:32N 59°20' E 018°05'0 0.0
2016-May-27 06:23N 59°20' E 018°05'0 0.0
2016-May-27 05:33N 59°20' E 018°05'0 0.0
2016-May-27 04:33N 59°20' E 018°05'0 0.0
2016-May-27 03:33N 59°20' E 018°05'0 0.0
2016-May-27 02:33N 59°20' E 018°05'0 0.0
2016-May-27 01:34N 59°20' E 018°05'0 0.0
2016-May-27 00:31N 59°20' E 018°05'0 0.0
2016-May-26 23:33N 59°20' E 018°05'0 0.0
2016-May-26 22:33N 59°20' E 018°05'0 0.0
2016-May-26 20:33N 59°20' E 018°05'4 1.1
2016-May-26 17:11N 59°20' E 018°12'4 5.8
2016-May-26 16:33N 59°20' E 018°05'0 0.0
2016-May-26 15:34N 59°20' E 018°05'0 0.0
2016-May-26 14:30N 59°20' E 018°05'0 0.0
2016-May-26 13:29N 59°20' E 018°05'0 0.0
2016-May-26 12:32N 59°20' E 018°05'0 0.0
2016-May-26 11:23N 59°20' E 018°05'0 0.0
2016-May-26 10:19N 59°20' E 018°05'0 0.0
2016-May-26 09:11N 59°20' E 018°05'0 0.0
2016-May-26 08:33N 59°20' E 018°05'0 0.0
2016-May-26 07:33N 59°20' E 018°05'0 0.0
2016-May-26 06:32N 59°20' E 018°05'0 0.0
2016-May-26 05:34N 59°20' E 018°05'0 0.0
2016-May-26 04:33N 59°20' E 018°05'0 0.0
2016-May-26 03:33N 59°20' E 018°05'0 0.0
2016-May-26 02:34N 59°20' E 018°05'0 0.0
2016-May-26 01:33N 59°20' E 018°05'0 0.0
2016-May-26 00:34N 59°20' E 018°05'0 0.0
2016-May-25 23:34N 59°20' E 018°05'0 0.0
2016-May-25 22:34N 59°20' E 018°05'0 0.0
2016-May-25 21:33N 59°20' E 018°05'0 0.0
2016-May-25 20:33N 59°20' E 018°05'3 2.5
2016-May-25 19:25N 59°20' E 018°10'1 0.5
2016-May-25 17:09N 59°20' E 018°12'4 6.2
2016-May-25 16:32N 59°19' E 018°05'0 0.2
2016-May-25 15:33N 59°20' E 018°05'0 0.0
2016-May-25 14:33N 59°20' E 018°05'0 0.0
2016-May-25 13:33N 59°20' E 018°05'0 0.0
2016-May-25 12:30N 59°20' E 018°05'0 0.0
2016-May-25 11:33N 59°20' E 018°05'0 0.0
2016-May-25 10:30N 59°20' E 018°05'0 0.0
2016-May-25 09:31N 59°20' E 018°05'0 0.0
2016-May-25 08:31N 59°20' E 018°05'0 0.0
2016-May-25 07:33N 59°20' E 018°05'0 0.0
2016-May-25 06:32N 59°20' E 018°05'0 0.0
2016-May-25 05:30N 59°20' E 018°05'0 0.0
2016-May-25 04:34N 59°20' E 018°05'0 0.0
2016-May-25 03:31N 59°20' E 018°05'0 0.0
2016-May-25 02:32N 59°20' E 018°05'0 0.0
2016-May-25 01:32N 59°20' E 018°05'0 0.0
2016-May-25 00:33N 59°20' E 018°05'0 0.0
2016-May-24 23:33N 59°20' E 018°05'0 0.0
2016-May-24 22:30N 59°20' E 018°05'0 0.0
2016-May-24 21:33N 59°20' E 018°05'0 0.0
2016-May-24 20:33N 59°20' E 018°05'4 1.2
2016-May-24 17:15N 59°20' E 018°12'4 5.3
2016-May-24 16:33N 59°19' E 018°05'0 0.1
2016-May-24 15:23N 59°20' E 018°05'0 0.0
2016-May-24 14:34N 59°20' E 018°05'0 0.0
2016-May-24 13:34N 59°20' E 018°05'0 0.0
2016-May-24 12:32N 59°20' E 018°05'0 0.0
2016-May-24 10:05N 59°20' E 018°05'0 0.0
2016-May-24 09:33N 59°20' E 018°05'0 0.0
2016-May-24 08:27N 59°20' E 018°05'0 0.0
2016-May-24 07:33N 59°20' E 018°05'0 0.0
2016-May-24 06:33N 59°20' E 018°05'0 0.0
2016-May-24 05:32N 59°20' E 018°05'0 0.0
2016-May-24 04:27N 59°20' E 018°05'0 0.0
2016-May-24 03:23N 59°20' E 018°05'0 0.0
2016-May-24 01:26N 59°20' E 018°05'0 0.0
2016-May-23 23:22N 59°20' E 018°05'0 0.0
2016-May-23 22:22N 59°20' E 018°05'0 0.0
2016-May-23 21:15N 59°20' E 018°05'0 0.0
2016-May-23 20:19N 59°20' E 018°05'4 1.4
2016-May-23 17:22N 59°20' E 018°13'4 5.1
2016-May-23 16:33N 59°20' E 018°05'0 0.0
2016-May-23 14:04N 59°20' E 018°05'0 0.0
2016-May-23 11:18N 59°20' E 018°05'0 0.0
2016-May-23 09:33N 59°20' E 018°05'0 0.0
2016-May-23 07:33N 59°20' E 018°05'0 0.0
2016-May-23 06:31N 59°20' E 018°05'0 0.0
2016-May-23 05:33N 59°20' E 018°05'0 0.0
2016-May-23 04:34N 59°20' E 018°05'0 0.0
2016-May-23 03:30N 59°20' E 018°05'0 0.0
2016-May-23 01:32N 59°20' E 018°05'0 0.0
2016-May-23 00:32N 59°20' E 018°05'0 0.0
2016-May-22 23:33N 59°20' E 018°05'0 0.0
2016-May-22 22:34N 59°20' E 018°05'0 0.0
2016-May-22 21:32N 59°20' E 018°05'0 0.0
2016-May-22 20:25N 59°20' E 018°05'0 0.0
2016-May-22 19:34N 59°20' E 018°05'0 0.0
2016-May-22 18:27N 59°20' E 018°05'0 0.0
2016-May-22 17:31N 59°20' E 018°05'0 0.0
2016-May-22 16:33N 59°20' E 018°05'0 0.0
2016-May-22 15:33N 59°20' E 018°05'0 0.0
2016-May-22 14:33N 59°20' E 018°05'0 0.0
2016-May-22 13:33N 59°20' E 018°05'0 0.0
2016-May-22 12:33N 59°20' E 018°05'0 0.0
2016-May-22 11:33N 59°20' E 018°05'0 0.0
2016-May-22 10:33N 59°20' E 018°05'0 0.0
2016-May-22 09:33N 59°20' E 018°05'0 0.0
2016-May-22 08:34N 59°20' E 018°05'0 0.0
2016-May-22 07:33N 59°20' E 018°05'0 0.0
2016-May-22 06:33N 59°20' E 018°05'0 0.0
2016-May-22 05:33N 59°20' E 018°05'0 0.0
2016-May-22 04:33N 59°20' E 018°05'0 0.0
2016-May-22 03:33N 59°20' E 018°05'0 0.0
2016-May-22 02:33N 59°20' E 018°05'  
Track history (hours):
 
Tides and Currents Weather Stations Pressure Air Temp Water Temp Dewpoint Dewpoint Depression Visibility Wind Speed Wind Dir Waves Ship Positions

Blidosund

Last reported at 2016-Jun-01 01:33 UTC. Time now 2016-Jun-01 01:42 UTC.
Position N 59°20' E 018°05'.

Length 35 m; draft 3 m.

Type: Passenger vessel. MMSI: 265522680.

Date/timePositionNaut miles runAvg speedWind from/ knotsBaromVisibWave heightAir tempDewpointWater temp
2016-Jun-01 01:33N 59°20' E 018°05'0 0.0
2016-Jun-01 00:34N 59°20' E 018°05'0 0.0
2016-May-31 23:34N 59°20' E 018°05'0 0.0
2016-May-31 22:34N 59°20' E 018°05'0 0.0
2016-May-31 21:34N 59°20' E 018°05'0 0.0
2016-May-31 20:33N 59°20' E 018°05'3 2.6
2016-May-31 19:33N 59°20' E 018°09'2 0.6
2016-May-31 17:10N 59°20' E 018°13'4 6.5
2016-May-31 16:34N 59°19' E 018°05'0 0.4
2016-May-31 15:26N 59°20' E 018°05'0 0.0
2016-May-31 14:33N 59°20' E 018°05'0 0.0
2016-May-31 13:34N 59°20' E 018°05'0 0.0
2016-May-31 12:33N 59°20' E 018°05'0 0.0
2016-May-31 11:32N 59°20' E 018°05'0 0.0
2016-May-31 10:10N 59°20' E 018°05'0 0.0
2016-May-31 09:33N 59°20' E 018°05'0 0.0
2016-May-31 08:04N 59°20' E 018°05'0 0.0
2016-May-31 07:29N 59°20' E 018°05'0 0.0
2016-May-31 06:33N 59°20' E 018°05'0 0.0
2016-May-31 04:31N 59°20' E 018°05'0 0.0
2016-May-31 03:34N 59°20' E 018°05'0 0.0
2016-May-31 02:33N 59°20' E 018°05'0 0.0
2016-May-31 01:34N 59°20' E 018°05'0 0.0
2016-May-31 00:34N 59°20' E 018°05'0 0.0
2016-May-30 23:34N 59°20' E 018°05'0 0.0
2016-May-30 22:34N 59°20' E 018°05'0 0.0
2016-May-30 21:33N 59°20' E 018°05'0 0.0
2016-May-30 20:34N 59°20' E 018°05'3 3.2
2016-May-30 19:30N 59°20' E 018°11'0 0.1
2016-May-30 17:14N 59°20' E 018°11'4 5.2
2016-May-30 16:34N 59°20' E 018°05'0 0.0
2016-May-30 15:34N 59°20' E 018°05'0 0.0
2016-May-30 14:30N 59°20' E 018°05'0 0.0
2016-May-30 13:34N 59°20' E 018°05'0 0.0
2016-May-30 12:10N 59°20' E 018°05'0 0.0
2016-May-30 11:33N 59°20' E 018°05'0 0.0
2016-May-30 10:30N 59°20' E 018°05'0 0.0
2016-May-30 09:28N 59°20' E 018°05'0 0.0
2016-May-30 08:30N 59°20' E 018°05'0 0.0
2016-May-30 07:25N 59°20' E 018°05'0 0.0
2016-May-30 04:34N 59°20' E 018°05'0 0.0
2016-May-30 03:23N 59°20' E 018°05'0 0.0
2016-May-30 01:29N 59°20' E 018°05'0 0.0
2016-May-30 00:11N 59°20' E 018°05'0 0.0
2016-May-29 23:33N 59°20' E 018°05'0 0.0
2016-May-29 22:33N 59°20' E 018°05'0 0.0
2016-May-29 21:34N 59°20' E 018°05'0 0.0
2016-May-29 20:34N 59°20' E 018°05'0 0.0
2016-May-29 19:28N 59°20' E 018°05'0 0.0
2016-May-29 18:34N 59°20' E 018°05'0 0.0
2016-May-29 17:33N 59°20' E 018°05'0 0.0
2016-May-29 16:33N 59°20' E 018°05'0 0.0
2016-May-29 15:33N 59°20' E 018°05'0 0.0
2016-May-29 14:33N 59°20' E 018°05'0 0.0
2016-May-29 13:33N 59°20' E 018°05'0 0.0
2016-May-29 12:33N 59°20' E 018°05'0 0.0
2016-May-29 11:33N 59°20' E 018°05'0 0.0
2016-May-29 10:33N 59°20' E 018°05'0 0.0
2016-May-29 09:33N 59°20' E 018°05'0 0.0
2016-May-29 08:33N 59°20' E 018°05'0 0.0
2016-May-29 07:33N 59°20' E 018°05'0 0.0
2016-May-29 06:33N 59°20' E 018°05'0 0.0
2016-May-29 05:33N 59°20' E 018°05'0 0.0
2016-May-29 04:33N 59°20' E 018°05'0 0.0
2016-May-29 03:33N 59°20' E 018°05'0 0.0
2016-May-29 02:33N 59°20' E 018°05'0 0.0
2016-May-29 01:33N 59°20' E 018°05'0 0.0
2016-May-29 00:33N 59°20' E 018°05'0 0.0
2016-May-28 23:32N 59°20' E 018°05'0 0.0
2016-May-28 22:33N 59°20' E 018°05'0 0.0
2016-May-28 21:33N 59°20' E 018°05'0 0.0
2016-May-28 20:33N 59°20' E 018°05'3 3.3
2016-May-28 19:33N 59°20' E 018°11'1 0.4
2016-May-28 17:21N 59°20' E 018°12'4 5.1
2016-May-28 16:33N 59°20' E 018°05'0 0.0
2016-May-28 15:25N 59°20' E 018°05'0 0.0
2016-May-28 12:10N 59°20' E 018°05'0 0.0
2016-May-28 11:33N 59°20' E 018°05'0 0.0
2016-May-27 23:32N 59°20' E 018°05'0 0.0
2016-May-27 22:32N 59°20' E 018°05'0 0.0
2016-May-27 21:21N 59°20' E 018°05'0 0.0
2016-May-27 20:33N 59°20' E 018°05'3 3.3
2016-May-27 19:31N 59°20' E 018°11'0 0.1
2016-May-27 17:17N 59°20' E 018°12'4 5.0
2016-May-27 16:33N 59°20' E 018°05'0 0.0
2016-May-27 15:29N 59°20' E 018°05'0 0.0
2016-May-27 14:32N 59°20' E 018°05'0 0.0
2016-May-27 13:24N 59°20' E 018°05'0 0.0
2016-May-27 12:29N 59°20' E 018°05'0 0.0
2016-May-27 11:28N 59°20' E 018°05'0 0.0
2016-May-27 10:31N 59°20' E 018°05'0 0.0
2016-May-27 09:27N 59°20' E 018°05'0 0.0
2016-May-27 08:33N 59°20' E 018°05'0 0.0
2016-May-27 07:32N 59°20' E 018°05'0 0.0
2016-May-27 06:23N 59°20' E 018°05'0 0.0
2016-May-27 05:33N 59°20' E 018°05'0 0.0
2016-May-27 04:33N 59°20' E 018°05'0 0.0
2016-May-27 03:33N 59°20' E 018°05'0 0.0
2016-May-27 02:33N 59°20' E 018°05'0 0.0
2016-May-27 01:34N 59°20' E 018°05'0 0.0
2016-May-27 00:31N 59°20' E 018°05'0 0.0
2016-May-26 23:33N 59°20' E 018°05'0 0.0
2016-May-26 22:33N 59°20' E 018°05'0 0.0
2016-May-26 20:33N 59°20' E 018°05'4 1.1
2016-May-26 17:11N 59°20' E 018°12'4 5.8
2016-May-26 16:33N 59°20' E 018°05'0 0.0
2016-May-26 15:34N 59°20' E 018°05'0 0.0
2016-May-26 14:30N 59°20' E 018°05'0 0.0
2016-May-26 13:29N 59°20' E 018°05'0 0.0
2016-May-26 12:32N 59°20' E 018°05'0 0.0
2016-May-26 11:23N 59°20' E 018°05'0 0.0
2016-May-26 10:19N 59°20' E 018°05'0 0.0
2016-May-26 09:11N 59°20' E 018°05'0 0.0
2016-May-26 08:33N 59°20' E 018°05'0 0.0
2016-May-26 07:33N 59°20' E 018°05'0 0.0
2016-May-26 06:32N 59°20' E 018°05'0 0.0
2016-May-26 05:34N 59°20' E 018°05'0 0.0
2016-May-26 04:33N 59°20' E 018°05'0 0.0
2016-May-26 03:33N 59°20' E 018°05'0 0.0
2016-May-26 02:34N 59°20' E 018°05'0 0.0
2016-May-26 01:33N 59°20' E 018°05'0 0.0
2016-May-26 00:34N 59°20' E 018°05'0 0.0
2016-May-25 23:34N 59°20' E 018°05'0 0.0
2016-May-25 22:34N 59°20' E 018°05'0 0.0
2016-May-25 21:33N 59°20' E 018°05'0 0.0
2016-May-25 20:33N 59°20' E 018°05'3 2.5
2016-May-25 19:25N 59°20' E 018°10'1 0.5
2016-May-25 17:09N 59°20' E 018°12'4 6.2
2016-May-25 16:32N 59°19' E 018°05'0 0.2
2016-May-25 15:33N 59°20' E 018°05'0 0.0
2016-May-25 14:33N 59°20' E 018°05'0 0.0
2016-May-25 13:33N 59°20' E 018°05'0 0.0
2016-May-25 12:30N 59°20' E 018°05'0 0.0
2016-May-25 11:33N 59°20' E 018°05'0 0.0
2016-May-25 10:30N 59°20' E 018°05'0 0.0
2016-May-25 09:31N 59°20' E 018°05'0 0.0
2016-May-25 08:31N 59°20' E 018°05'0 0.0
2016-May-25 07:33N 59°20' E 018°05'0 0.0
2016-May-25 06:32N 59°20' E 018°05'0 0.0
2016-May-25 05:30N 59°20' E 018°05'0 0.0
2016-May-25 04:34N 59°20' E 018°05'0 0.0
2016-May-25 03:31N 59°20' E 018°05'0 0.0
2016-May-25 02:32N 59°20' E 018°05'0 0.0
2016-May-25 01:32N 59°20' E 018°05'0 0.0
2016-May-25 00:33N 59°20' E 018°05'0 0.0
2016-May-24 23:33N 59°20' E 018°05'0 0.0
2016-May-24 22:30N 59°20' E 018°05'0 0.0
2016-May-24 21:33N 59°20' E 018°05'0 0.0
2016-May-24 20:33N 59°20' E 018°05'4 1.2
2016-May-24 17:15N 59°20' E 018°12'4 5.3
2016-May-24 16:33N 59°19' E 018°05'0 0.1
2016-May-24 15:23N 59°20' E 018°05'0 0.0
2016-May-24 14:34N 59°20' E 018°05'0 0.0
2016-May-24 13:34N 59°20' E 018°05'0 0.0
2016-May-24 12:32N 59°20' E 018°05'0 0.0
2016-May-24 10:05N 59°20' E 018°05'0 0.0
2016-May-24 09:33N 59°20' E 018°05'0 0.0
2016-May-24 08:27N 59°20' E 018°05'0 0.0
2016-May-24 07:33N 59°20' E 018°05'0 0.0
2016-May-24 06:33N 59°20' E 018°05'0 0.0
2016-May-24 05:32N 59°20' E 018°05'0 0.0
2016-May-24 04:27N 59°20' E 018°05'0 0.0
2016-May-24 03:23N 59°20' E 018°05'0 0.0
2016-May-24 01:26N 59°20' E 018°05'0 0.0
2016-May-23 23:22N 59°20' E 018°05'0 0.0
2016-May-23 22:22N 59°20' E 018°05'0 0.0
2016-May-23 21:15N 59°20' E 018°05'0 0.0
2016-May-23 20:19N 59°20' E 018°05'4 1.4
2016-May-23 17:22N 59°20' E 018°13'4 5.1
2016-May-23 16:33N 59°20' E 018°05'0 0.0
2016-May-23 14:04N 59°20' E 018°05'0 0.0
2016-May-23 11:18N 59°20' E 018°05'0 0.0
2016-May-23 09:33N 59°20' E 018°05'0 0.0
2016-May-23 07:33N 59°20' E 018°05'0 0.0
2016-May-23 06:31N 59°20' E 018°05'0 0.0
2016-May-23 05:33N 59°20' E 018°05'0 0.0
2016-May-23 04:34N 59°20' E 018°05'0 0.0
2016-May-23 03:30N 59°20' E 018°05'0 0.0
2016-May-23 01:32N 59°20' E 018°05'0 0.0
2016-May-23 00:32N 59°20' E 018°05'0 0.0
2016-May-22 23:33N 59°20' E 018°05'0 0.0
2016-May-22 22:34N 59°20' E 018°05'0 0.0
2016-May-22 21:32N 59°20' E 018°05'0 0.0
2016-May-22 20:25N 59°20' E 018°05'0 0.0
2016-May-22 19:34N 59°20' E 018°05'0 0.0
2016-May-22 18:27N 59°20' E 018°05'0 0.0
2016-May-22 17:31N 59°20' E 018°05'0 0.0
2016-May-22 16:33N 59°20' E 018°05'0 0.0
2016-May-22 15:33N 59°20' E 018°05'0 0.0
2016-May-22 14:33N 59°20' E 018°05'0 0.0
2016-May-22 13:33N 59°20' E 018°05'0 0.0
2016-May-22 12:33N 59°20' E 018°05'0 0.0
2016-May-22 11:33N 59°20' E 018°05'0 0.0
2016-May-22 10:33N 59°20' E 018°05'0 0.0
2016-May-22 09:33N 59°20' E 018°05'0 0.0
2016-May-22 08:34N 59°20' E 018°05'0 0.0
2016-May-22 07:33N 59°20' E 018°05'0 0.0
2016-May-22 06:33N 59°20' E 018°05'0 0.0
2016-May-22 05:33N 59°20' E 018°05'0 0.0
2016-May-22 04:33N 59°20' E 018°05'0 0.0
2016-May-22 03:33N 59°20' E 018°05'0 0.0
2016-May-22 02:33N 59°20' E 018°05'  

Dump ship's entire track history